sensor_id;sensor_type;location;lat;lon;timestamp;P1;durP1;ratioP1;P2;durP2;ratioP2
78778;SDS011;68121;52.404;5.318;2023-06-14T00:02:09;4.90;;;1.73;;
78778;SDS011;68121;52.404;5.318;2023-06-14T00:04:35;3.33;;;1.58;;
78778;SDS011;68121;52.404;5.318;2023-06-14T00:07:03;4.43;;;2.10;;
78778;SDS011;68121;52.404;5.318;2023-06-14T00:09:29;4.38;;;1.75;;
78778;SDS011;68121;52.404;5.318;2023-06-14T00:11:55;4.13;;;1.80;;
78778;SDS011;68121;52.404;5.318;2023-06-14T00:14:21;6.10;;;2.17;;
78778;SDS011;68121;52.404;5.318;2023-06-14T00:16:47;3.10;;;1.83;;
78778;SDS011;68121;52.404;5.318;2023-06-14T00:19:13;6.28;;;2.20;;
78778;SDS011;68121;52.404;5.318;2023-06-14T00:21:39;3.67;;;2.08;;
78778;SDS011;68121;52.404;5.318;2023-06-14T00:24:06;6.35;;;1.98;;
78778;SDS011;68121;52.404;5.318;2023-06-14T00:26:33;7.95;;;1.98;;
78778;SDS011;68121;52.404;5.318;2023-06-14T00:28:59;4.32;;;1.88;;
78778;SDS011;68121;52.404;5.318;2023-06-14T00:31:25;6.80;;;2.38;;
78778;SDS011;68121;52.404;5.318;2023-06-14T00:33:51;3.50;;;1.85;;
78778;SDS011;68121;52.404;5.318;2023-06-14T00:36:17;4.28;;;1.77;;
78778;SDS011;68121;52.404;5.318;2023-06-14T00:38:43;4.95;;;1.90;;
78778;SDS011;68121;52.404;5.318;2023-06-14T00:41:09;4.20;;;1.60;;
78778;SDS011;68121;52.404;5.318;2023-06-14T00:43:35;7.30;;;1.90;;
78778;SDS011;68121;52.404;5.318;2023-06-14T00:46:02;5.68;;;1.88;;
78778;SDS011;68121;52.404;5.318;2023-06-14T00:48:28;4.50;;;1.98;;
78778;SDS011;68121;52.404;5.318;2023-06-14T00:50:56;4.80;;;1.98;;
78778;SDS011;68121;52.404;5.318;2023-06-14T00:53:23;4.63;;;2.00;;
78778;SDS011;68121;52.404;5.318;2023-06-14T00:55:50;4.55;;;1.90;;
78778;SDS011;68121;52.404;5.318;2023-06-14T00:58:16;4.15;;;2.00;;
78778;SDS011;68121;52.404;5.318;2023-06-14T01:00:42;6.10;;;2.03;;
78778;SDS011;68121;52.404;5.318;2023-06-14T01:03:09;4.35;;;1.90;;
78778;SDS011;68121;52.404;5.318;2023-06-14T01:05:38;4.25;;;1.77;;
78778;SDS011;68121;52.404;5.318;2023-06-14T01:10:47;3.65;;;1.70;;
78778;SDS011;68121;52.404;5.318;2023-06-14T01:13:20;4.18;;;1.70;;
78778;SDS011;68121;52.404;5.318;2023-06-14T01:15:52;4.88;;;2.10;;
78778;SDS011;68121;52.404;5.318;2023-06-14T01:18:21;4.10;;;2.10;;
78778;SDS011;68121;52.404;5.318;2023-06-14T01:20:49;5.45;;;2.00;;
78778;SDS011;68121;52.404;5.318;2023-06-14T01:23:16;8.68;;;2.20;;
78778;SDS011;68121;52.404;5.318;2023-06-14T01:25:43;5.05;;;1.60;;
78778;SDS011;68121;52.404;5.318;2023-06-14T01:28:10;5.60;;;2.25;;
78778;SDS011;68121;52.404;5.318;2023-06-14T01:30:39;3.75;;;1.88;;
78778;SDS011;68121;52.404;5.318;2023-06-14T01:33:14;4.38;;;1.88;;
78778;SDS011;68121;52.404;5.318;2023-06-14T01:35:42;7.00;;;1.90;;
78778;SDS011;68121;52.404;5.318;2023-06-14T01:38:09;5.07;;;1.58;;
78778;SDS011;68121;52.404;5.318;2023-06-14T01:40:35;3.38;;;1.80;;
78778;SDS011;68121;52.404;5.318;2023-06-14T01:43:02;4.80;;;1.67;;
78778;SDS011;68121;52.404;5.318;2023-06-14T01:45:29;5.60;;;2.25;;
78778;SDS011;68121;52.404;5.318;2023-06-14T01:47:56;4.45;;;1.60;;
78778;SDS011;68121;52.404;5.318;2023-06-14T01:50:23;3.45;;;1.65;;
78778;SDS011;68121;52.404;5.318;2023-06-14T01:52:53;3.15;;;1.40;;
78778;SDS011;68121;52.404;5.318;2023-06-14T01:55:19;6.75;;;1.92;;
78778;SDS011;68121;52.404;5.318;2023-06-14T01:57:47;5.10;;;2.22;;
78778;SDS011;68121;52.404;5.318;2023-06-14T02:00:14;4.90;;;1.70;;
78778;SDS011;68121;52.404;5.318;2023-06-14T02:02:41;6.45;;;1.60;;
78778;SDS011;68121;52.404;5.318;2023-06-14T02:05:07;2.42;;;1.77;;
78778;SDS011;68121;52.404;5.318;2023-06-14T02:07:34;4.10;;;1.88;;
78778;SDS011;68121;52.404;5.318;2023-06-14T02:10:00;3.22;;;1.70;;
78778;SDS011;68121;52.404;5.318;2023-06-14T02:12:26;4.57;;;1.73;;
78778;SDS011;68121;52.404;5.318;2023-06-14T02:14:52;4.70;;;1.60;;
78778;SDS011;68121;52.404;5.318;2023-06-14T02:17:19;4.38;;;1.52;;
78778;SDS011;68121;52.404;5.318;2023-06-14T02:19:45;3.53;;;1.80;;
78778;SDS011;68121;52.404;5.318;2023-06-14T02:22:11;4.20;;;1.48;;
78778;SDS011;68121;52.404;5.318;2023-06-14T02:24:40;2.50;;;1.58;;
78778;SDS011;68121;52.404;5.318;2023-06-14T02:27:07;4.60;;;1.48;;
78778;SDS011;68121;52.404;5.318;2023-06-14T02:29:35;3.67;;;1.50;;
78778;SDS011;68121;52.404;5.318;2023-06-14T02:32:02;3.70;;;1.65;;
78778;SDS011;68121;52.404;5.318;2023-06-14T02:34:29;5.55;;;1.95;;
78778;SDS011;68121;52.404;5.318;2023-06-14T02:36:55;4.90;;;1.90;;
78778;SDS011;68121;52.404;5.318;2023-06-14T02:39:21;2.47;;;1.40;;
78778;SDS011;68121;52.404;5.318;2023-06-14T02:41:49;5.40;;;1.38;;
78778;SDS011;68121;52.404;5.318;2023-06-14T02:44:18;5.78;;;1.73;;
78778;SDS011;68121;52.404;5.318;2023-06-14T02:46:45;4.28;;;1.77;;
78778;SDS011;68121;52.404;5.318;2023-06-14T02:49:11;5.47;;;2.13;;
78778;SDS011;68121;52.404;5.318;2023-06-14T02:51:37;5.35;;;1.90;;
78778;SDS011;68121;52.404;5.318;2023-06-14T02:54:03;3.95;;;1.75;;
78778;SDS011;68121;52.404;5.318;2023-06-14T02:56:29;3.83;;;1.90;;
78778;SDS011;68121;52.404;5.318;2023-06-14T02:58:55;6.38;;;1.98;;
78778;SDS011;68121;52.404;5.318;2023-06-14T03:01:22;5.47;;;1.73;;
78778;SDS011;68121;52.404;5.318;2023-06-14T03:03:51;3.03;;;1.60;;
78778;SDS011;68121;52.404;5.318;2023-06-14T03:06:17;5.00;;;1.77;;
78778;SDS011;68121;52.404;5.318;2023-06-14T03:08:44;3.75;;;1.50;;
78778;SDS011;68121;52.404;5.318;2023-06-14T03:11:10;7.03;;;1.80;;
78778;SDS011;68121;52.404;5.318;2023-06-14T03:13:36;2.70;;;1.50;;
78778;SDS011;68121;52.404;5.318;2023-06-14T03:16:03;5.18;;;1.83;;
78778;SDS011;68121;52.404;5.318;2023-06-14T03:18:29;5.35;;;1.70;;
78778;SDS011;68121;52.404;5.318;2023-06-14T03:20:56;4.28;;;1.85;;
78778;SDS011;68121;52.404;5.318;2023-06-14T03:23:24;5.82;;;1.92;;
78778;SDS011;68121;52.404;5.318;2023-06-14T03:25:51;4.00;;;1.73;;
78778;SDS011;68121;52.404;5.318;2023-06-14T03:28:17;3.45;;;1.42;;
78778;SDS011;68121;52.404;5.318;2023-06-14T03:30:43;3.08;;;1.70;;
78778;SDS011;68121;52.404;5.318;2023-06-14T03:33:09;3.22;;;1.42;;
78778;SDS011;68121;52.404;5.318;2023-06-14T03:35:36;4.85;;;1.90;;
78778;SDS011;68121;52.404;5.318;2023-06-14T03:38:02;4.20;;;1.80;;
78778;SDS011;68121;52.404;5.318;2023-06-14T03:40:29;7.63;;;2.17;;
78778;SDS011;68121;52.404;5.318;2023-06-14T03:42:55;2.72;;;1.50;;
78778;SDS011;68121;52.404;5.318;2023-06-14T03:45:21;2.70;;;1.80;;
78778;SDS011;68121;52.404;5.318;2023-06-14T03:47:47;2.50;;;1.48;;
78778;SDS011;68121;52.404;5.318;2023-06-14T03:50:13;2.53;;;1.67;;
78778;SDS011;68121;52.404;5.318;2023-06-14T03:52:40;2.45;;;1.40;;
78778;SDS011;68121;52.404;5.318;2023-06-14T03:55:08;2.95;;;1.77;;
78778;SDS011;68121;52.404;5.318;2023-06-14T03:57:35;5.80;;;2.15;;
78778;SDS011;68121;52.404;5.318;2023-06-14T04:00:02;4.05;;;1.67;;
78778;SDS011;68121;52.404;5.318;2023-06-14T04:02:31;4.20;;;1.60;;
78778;SDS011;68121;52.404;5.318;2023-06-14T04:04:57;4.18;;;1.98;;
78778;SDS011;68121;52.404;5.318;2023-06-14T04:07:23;4.93;;;1.70;;
78778;SDS011;68121;52.404;5.318;2023-06-14T04:09:50;6.00;;;1.85;;
78778;SDS011;68121;52.404;5.318;2023-06-14T04:12:16;3.35;;;1.42;;
78778;SDS011;68121;52.404;5.318;2023-06-14T04:14:42;3.45;;;1.42;;
78778;SDS011;68121;52.404;5.318;2023-06-14T04:17:08;3.30;;;1.83;;
78778;SDS011;68121;52.404;5.318;2023-06-14T04:19:34;3.92;;;1.65;;
78778;SDS011;68121;52.404;5.318;2023-06-14T04:22:01;5.07;;;1.70;;
78778;SDS011;68121;52.404;5.318;2023-06-14T04:24:28;2.33;;;1.50;;
78778;SDS011;68121;52.404;5.318;2023-06-14T04:27:00;5.78;;;1.70;;
78778;SDS011;68121;52.404;5.318;2023-06-14T04:29:29;5.20;;;1.77;;
78778;SDS011;68121;52.404;5.318;2023-06-14T04:31:56;5.47;;;2.10;;
78778;SDS011;68121;52.404;5.318;2023-06-14T04:34:25;4.07;;;1.65;;
78778;SDS011;68121;52.404;5.318;2023-06-14T04:36:58;2.35;;;1.63;;
78778;SDS011;68121;52.404;5.318;2023-06-14T04:39:25;3.83;;;2.03;;
78778;SDS011;68121;52.404;5.318;2023-06-14T04:41:52;2.90;;;1.88;;
78778;SDS011;68121;52.404;5.318;2023-06-14T04:44:23;3.60;;;1.73;;
78778;SDS011;68121;52.404;5.318;2023-06-14T04:46:58;2.97;;;1.73;;
78778;SDS011;68121;52.404;5.318;2023-06-14T04:49:24;3.85;;;1.55;;
78778;SDS011;68121;52.404;5.318;2023-06-14T04:51:52;5.40;;;1.55;;
78778;SDS011;68121;52.404;5.318;2023-06-14T04:54:28;2.90;;;1.27;;
78778;SDS011;68121;52.404;5.318;2023-06-14T04:56:57;3.25;;;1.75;;
78778;SDS011;68121;52.404;5.318;2023-06-14T04:59:23;2.97;;;2.00;;
78778;SDS011;68121;52.404;5.318;2023-06-14T05:01:49;2.80;;;1.73;;
78778;SDS011;68121;52.404;5.318;2023-06-14T05:04:15;3.80;;;1.65;;
78778;SDS011;68121;52.404;5.318;2023-06-14T05:06:43;2.08;;;1.50;;
78778;SDS011;68121;52.404;5.318;2023-06-14T05:09:13;5.40;;;1.60;;
78778;SDS011;68121;52.404;5.318;2023-06-14T05:11:40;7.20;;;1.67;;
78778;SDS011;68121;52.404;5.318;2023-06-14T05:14:10;3.35;;;1.67;;
78778;SDS011;68121;52.404;5.318;2023-06-14T05:16:37;3.38;;;1.60;;
78778;SDS011;68121;52.404;5.318;2023-06-14T05:19:04;3.85;;;1.88;;
78778;SDS011;68121;52.404;5.318;2023-06-14T05:21:30;4.60;;;1.83;;
78778;SDS011;68121;52.404;5.318;2023-06-14T05:23:59;4.80;;;1.95;;
78778;SDS011;68121;52.404;5.318;2023-06-14T05:26:25;3.45;;;1.83;;
78778;SDS011;68121;52.404;5.318;2023-06-14T05:28:54;3.00;;;1.98;;
78778;SDS011;68121;52.404;5.318;2023-06-14T05:31:24;4.50;;;2.00;;
78778;SDS011;68121;52.404;5.318;2023-06-14T05:33:51;6.00;;;1.92;;
78778;SDS011;68121;52.404;5.318;2023-06-14T05:36:18;3.45;;;2.00;;
78778;SDS011;68121;52.404;5.318;2023-06-14T05:38:45;3.58;;;1.70;;
78778;SDS011;68121;52.404;5.318;2023-06-14T05:41:11;3.65;;;1.58;;
78778;SDS011;68121;52.404;5.318;2023-06-14T05:43:37;4.20;;;1.95;;
78778;SDS011;68121;52.404;5.318;2023-06-14T05:46:03;6.65;;;2.33;;
78778;SDS011;68121;52.404;5.318;2023-06-14T05:48:32;6.45;;;1.60;;
78778;SDS011;68121;52.404;5.318;2023-06-14T05:50:58;3.08;;;2.05;;
78778;SDS011;68121;52.404;5.318;2023-06-14T05:53:24;3.63;;;1.77;;
78778;SDS011;68121;52.404;5.318;2023-06-14T05:55:50;4.88;;;1.90;;
78778;SDS011;68121;52.404;5.318;2023-06-14T05:58:19;7.32;;;3.38;;
78778;SDS011;68121;52.404;5.318;2023-06-14T06:00:45;6.75;;;2.30;;
78778;SDS011;68121;52.404;5.318;2023-06-14T06:03:11;4.50;;;1.70;;
78778;SDS011;68121;52.404;5.318;2023-06-14T06:05:38;5.25;;;2.63;;
78778;SDS011;68121;52.404;5.318;2023-06-14T06:08:05;4.00;;;1.95;;
78778;SDS011;68121;52.404;5.318;2023-06-14T06:10:31;4.28;;;1.98;;
78778;SDS011;68121;52.404;5.318;2023-06-14T06:12:57;4.22;;;2.05;;
78778;SDS011;68121;52.404;5.318;2023-06-14T06:15:23;6.25;;;1.90;;
78778;SDS011;68121;52.404;5.318;2023-06-14T06:17:49;2.85;;;1.80;;
78778;SDS011;68121;52.404;5.318;2023-06-14T06:20:16;3.35;;;1.88;;
78778;SDS011;68121;52.404;5.318;2023-06-14T06:22:42;4.72;;;2.03;;
78778;SDS011;68121;52.404;5.318;2023-06-14T06:25:09;4.50;;;1.98;;
78778;SDS011;68121;52.404;5.318;2023-06-14T06:27:36;3.55;;;1.85;;
78778;SDS011;68121;52.404;5.318;2023-06-14T06:30:03;6.40;;;1.88;;
78778;SDS011;68121;52.404;5.318;2023-06-14T06:32:29;2.75;;;2.28;;
78778;SDS011;68121;52.404;5.318;2023-06-14T06:34:55;5.07;;;1.90;;
78778;SDS011;68121;52.404;5.318;2023-06-14T06:37:21;3.72;;;1.85;;
78778;SDS011;68121;52.404;5.318;2023-06-14T06:39:47;5.13;;;2.10;;
78778;SDS011;68121;52.404;5.318;2023-06-14T06:42:13;2.90;;;1.73;;
78778;SDS011;68121;52.404;5.318;2023-06-14T06:44:39;5.65;;;2.28;;
78778;SDS011;68121;52.404;5.318;2023-06-14T06:47:05;6.78;;;2.20;;
78778;SDS011;68121;52.404;5.318;2023-06-14T06:49:31;3.63;;;1.83;;
78778;SDS011;68121;52.404;5.318;2023-06-14T06:54:27;7.93;;;2.05;;
78778;SDS011;68121;52.404;5.318;2023-06-14T06:56:53;2.95;;;1.90;;
78778;SDS011;68121;52.404;5.318;2023-06-14T06:59:20;3.88;;;1.77;;
78778;SDS011;68121;52.404;5.318;2023-06-14T07:01:46;4.07;;;1.75;;
78778;SDS011;68121;52.404;5.318;2023-06-14T07:04:12;2.53;;;1.50;;
78778;SDS011;68121;52.404;5.318;2023-06-14T07:06:39;3.17;;;1.83;;
78778;SDS011;68121;52.404;5.318;2023-06-14T07:09:05;3.83;;;1.85;;
78778;SDS011;68121;52.404;5.318;2023-06-14T07:11:33;3.83;;;1.60;;
78778;SDS011;68121;52.404;5.318;2023-06-14T07:13:59;4.15;;;1.88;;
78778;SDS011;68121;52.404;5.318;2023-06-14T07:16:26;6.75;;;2.00;;
78778;SDS011;68121;52.404;5.318;2023-06-14T07:18:52;4.18;;;1.63;;
78778;SDS011;68121;52.404;5.318;2023-06-14T07:21:18;3.05;;;1.70;;
78778;SDS011;68121;52.404;5.318;2023-06-14T07:23:44;5.57;;;1.92;;
78778;SDS011;68121;52.404;5.318;2023-06-14T07:26:10;4.22;;;2.00;;
78778;SDS011;68121;52.404;5.318;2023-06-14T07:28:36;5.30;;;1.80;;
78778;SDS011;68121;52.404;5.318;2023-06-14T07:31:02;2.97;;;1.73;;
78778;SDS011;68121;52.404;5.318;2023-06-14T07:33:28;3.83;;;1.65;;
78778;SDS011;68121;52.404;5.318;2023-06-14T07:35:54;2.00;;;1.65;;
78778;SDS011;68121;52.404;5.318;2023-06-14T07:38:21;3.67;;;1.33;;
78778;SDS011;68121;52.404;5.318;2023-06-14T07:40:47;2.95;;;1.80;;
78778;SDS011;68121;52.404;5.318;2023-06-14T07:43:13;6.88;;;1.83;;
78778;SDS011;68121;52.404;5.318;2023-06-14T07:45:39;3.28;;;1.60;;
78778;SDS011;68121;52.404;5.318;2023-06-14T07:48:05;4.38;;;1.83;;
78778;SDS011;68121;52.404;5.318;2023-06-14T07:50:31;4.20;;;1.65;;
78778;SDS011;68121;52.404;5.318;2023-06-14T07:52:57;5.18;;;1.45;;
78778;SDS011;68121;52.404;5.318;2023-06-14T07:55:23;3.17;;;1.60;;
78778;SDS011;68121;52.404;5.318;2023-06-14T07:57:50;4.22;;;1.58;;
78778;SDS011;68121;52.404;5.318;2023-06-14T08:00:17;4.50;;;1.40;;
78778;SDS011;68121;52.404;5.318;2023-06-14T08:02:44;3.97;;;1.60;;
78778;SDS011;68121;52.404;5.318;2023-06-14T08:05:10;3.42;;;1.50;;
78778;SDS011;68121;52.404;5.318;2023-06-14T08:07:37;3.95;;;1.20;;
78778;SDS011;68121;52.404;5.318;2023-06-14T08:10:04;4.00;;;1.40;;
78778;SDS011;68121;52.404;5.318;2023-06-14T08:12:32;3.40;;;1.23;;
78778;SDS011;68121;52.404;5.318;2023-06-14T08:14:59;5.32;;;1.50;;
78778;SDS011;68121;52.404;5.318;2023-06-14T08:17:25;2.72;;;1.30;;
78778;SDS011;68121;52.404;5.318;2023-06-14T08:19:52;4.40;;;1.48;;
78778;SDS011;68121;52.404;5.318;2023-06-14T08:22:22;3.08;;;1.30;;
78778;SDS011;68121;52.404;5.318;2023-06-14T08:24:50;4.63;;;2.65;;
78778;SDS011;68121;52.404;5.318;2023-06-14T08:27:16;3.47;;;1.40;;
78778;SDS011;68121;52.404;5.318;2023-06-14T08:29:43;2.90;;;1.35;;
78778;SDS011;68121;52.404;5.318;2023-06-14T08:32:09;2.28;;;1.38;;
78778;SDS011;68121;52.404;5.318;2023-06-14T08:34:35;3.17;;;1.20;;
78778;SDS011;68121;52.404;5.318;2023-06-14T08:37:01;2.63;;;1.50;;
78778;SDS011;68121;52.404;5.318;2023-06-14T08:39:28;8.48;;;1.60;;
78778;SDS011;68121;52.404;5.318;2023-06-14T08:41:54;4.10;;;1.27;;
78778;SDS011;68121;52.404;5.318;2023-06-14T08:44:21;2.08;;;1.27;;
78778;SDS011;68121;52.404;5.318;2023-06-14T08:46:48;1.73;;;1.20;;
78778;SDS011;68121;52.404;5.318;2023-06-14T08:49:16;5.53;;;1.38;;
78778;SDS011;68121;52.404;5.318;2023-06-14T08:51:42;1.88;;;1.60;;
78778;SDS011;68121;52.404;5.318;2023-06-14T08:54:10;3.85;;;1.25;;
78778;SDS011;68121;52.404;5.318;2023-06-14T08:56:37;2.50;;;1.05;;
78778;SDS011;68121;52.404;5.318;2023-06-14T08:59:04;4.03;;;1.20;;
78778;SDS011;68121;52.404;5.318;2023-06-14T09:01:33;5.10;;;2.00;;
78778;SDS011;68121;52.404;5.318;2023-06-14T09:04:00;3.35;;;1.30;;
78778;SDS011;68121;52.404;5.318;2023-06-14T09:06:27;3.35;;;1.13;;
78778;SDS011;68121;52.404;5.318;2023-06-14T09:08:54;1.80;;;1.30;;
78778;SDS011;68121;52.404;5.318;2023-06-14T09:11:22;5.07;;;1.40;;
78778;SDS011;68121;52.404;5.318;2023-06-14T09:13:49;5.25;;;1.40;;
78778;SDS011;68121;52.404;5.318;2023-06-14T09:16:16;2.90;;;1.35;;
78778;SDS011;68121;52.404;5.318;2023-06-14T09:18:43;2.47;;;1.17;;
78778;SDS011;68121;52.404;5.318;2023-06-14T09:21:10;4.47;;;1.48;;
78778;SDS011;68121;52.404;5.318;2023-06-14T09:23:37;1.83;;;1.30;;
78778;SDS011;68121;52.404;5.318;2023-06-14T09:26:14;5.03;;;1.52;;
78778;SDS011;68121;52.404;5.318;2023-06-14T09:28:46;4.22;;;1.33;;
78778;SDS011;68121;52.404;5.318;2023-06-14T09:31:14;4.78;;;1.70;;
78778;SDS011;68121;52.404;5.318;2023-06-14T09:33:42;2.50;;;1.25;;
78778;SDS011;68121;52.404;5.318;2023-06-14T09:36:15;5.20;;;1.20;;
78778;SDS011;68121;52.404;5.318;2023-06-14T09:38:51;4.05;;;1.52;;
78778;SDS011;68121;52.404;5.318;2023-06-14T09:41:18;2.13;;;1.20;;
78778;SDS011;68121;52.404;5.318;2023-06-14T09:43:44;3.58;;;1.20;;
78778;SDS011;68121;52.404;5.318;2023-06-14T09:46:12;1.75;;;1.00;;
78778;SDS011;68121;52.404;5.318;2023-06-14T09:48:39;1.67;;;1.10;;
78778;SDS011;68121;52.404;5.318;2023-06-14T09:51:10;1.33;;;0.90;;
78778;SDS011;68121;52.404;5.318;2023-06-14T09:53:40;2.20;;;1.02;;
78778;SDS011;68121;52.404;5.318;2023-06-14T09:56:08;2.35;;;1.17;;
78778;SDS011;68121;52.404;5.318;2023-06-14T09:58:37;3.70;;;1.17;;
78778;SDS011;68121;52.404;5.318;2023-06-14T10:01:06;2.55;;;1.10;;
78778;SDS011;68121;52.404;5.318;2023-06-14T10:03:34;1.75;;;1.10;;
78778;SDS011;68121;52.404;5.318;2023-06-14T10:06:02;5.72;;;1.27;;
78778;SDS011;68121;52.404;5.318;2023-06-14T10:08:34;1.52;;;1.10;;
78778;SDS011;68121;52.404;5.318;2023-06-14T10:11:02;1.95;;;1.30;;
78778;SDS011;68121;52.404;5.318;2023-06-14T10:13:31;3.42;;;1.00;;
78778;SDS011;68121;52.404;5.318;2023-06-14T10:16:09;3.20;;;1.30;;
78778;SDS011;68121;52.404;5.318;2023-06-14T10:21:36;2.13;;;1.05;;
78778;SDS011;68121;52.404;5.318;2023-06-14T10:24:12;2.30;;;1.00;;
78778;SDS011;68121;52.404;5.318;2023-06-14T10:26:53;2.65;;;1.08;;
78778;SDS011;68121;52.404;5.318;2023-06-14T10:29:22;1.55;;;1.25;;
78778;SDS011;68121;52.404;5.318;2023-06-14T10:31:49;1.92;;;1.02;;
78778;SDS011;68121;52.404;5.318;2023-06-14T10:34:26;2.13;;;1.48;;
78778;SDS011;68121;52.404;5.318;2023-06-14T10:39:29;2.80;;;1.20;;
78778;SDS011;68121;52.404;5.318;2023-06-14T10:41:56;2.40;;;1.17;;
78778;SDS011;68121;52.404;5.318;2023-06-14T10:46:49;2.78;;;1.00;;
78778;SDS011;68121;52.404;5.318;2023-06-14T10:49:18;3.15;;;1.30;;
78778;SDS011;68121;52.404;5.318;2023-06-14T10:51:45;2.33;;;1.40;;
78778;SDS011;68121;52.404;5.318;2023-06-14T10:54:15;7.47;;;1.35;;
78778;SDS011;68121;52.404;5.318;2023-06-14T10:56:51;2.83;;;1.10;;
78778;SDS011;68121;52.404;5.318;2023-06-14T10:59:19;4.90;;;1.50;;
78778;SDS011;68121;52.404;5.318;2023-06-14T11:10:26;2.72;;;1.17;;
78778;SDS011;68121;52.404;5.318;2023-06-14T11:13:28;4.30;;;1.30;;
78778;SDS011;68121;52.404;5.318;2023-06-14T11:15:54;1.77;;;1.00;;
78778;SDS011;68121;52.404;5.318;2023-06-14T11:18:23;4.20;;;1.00;;
78778;SDS011;68121;52.404;5.318;2023-06-14T11:20:53;4.18;;;1.05;;
78778;SDS011;68121;52.404;5.318;2023-06-14T11:23:20;1.80;;;1.00;;
78778;SDS011;68121;52.404;5.318;2023-06-14T11:25:50;1.42;;;0.93;;
78778;SDS011;68121;52.404;5.318;2023-06-14T11:28:16;1.55;;;1.15;;
78778;SDS011;68121;52.404;5.318;2023-06-14T11:30:45;3.90;;;1.13;;
78778;SDS011;68121;52.404;5.318;2023-06-14T11:33:16;4.00;;;1.13;;
78778;SDS011;68121;52.404;5.318;2023-06-14T11:35:44;4.15;;;1.88;;
78778;SDS011;68121;52.404;5.318;2023-06-14T11:38:11;6.45;;;1.70;;
78778;SDS011;68121;52.404;5.318;2023-06-14T11:40:37;3.95;;;1.40;;
78778;SDS011;68121;52.404;5.318;2023-06-14T11:43:04;4.35;;;1.77;;
78778;SDS011;68121;52.404;5.318;2023-06-14T11:45:30;6.25;;;1.55;;
78778;SDS011;68121;52.404;5.318;2023-06-14T11:47:57;3.35;;;1.00;;
78778;SDS011;68121;52.404;5.318;2023-06-14T11:50:24;2.85;;;1.10;;
78778;SDS011;68121;52.404;5.318;2023-06-14T11:52:54;4.25;;;1.70;;
78778;SDS011;68121;52.404;5.318;2023-06-14T11:55:22;1.75;;;0.95;;
78778;SDS011;68121;52.404;5.318;2023-06-14T11:57:49;4.10;;;1.33;;
78778;SDS011;68121;52.404;5.318;2023-06-14T12:00:15;1.95;;;1.10;;
78778;SDS011;68121;52.404;5.318;2023-06-14T12:02:43;1.55;;;1.15;;
78778;SDS011;68121;52.404;5.318;2023-06-14T12:05:20;3.83;;;0.95;;
78778;SDS011;68121;52.404;5.318;2023-06-14T12:07:47;1.58;;;0.98;;
78778;SDS011;68121;52.404;5.318;2023-06-14T12:10:14;2.35;;;1.10;;
78778;SDS011;68121;52.404;5.318;2023-06-14T12:12:40;6.38;;;1.48;;
78778;SDS011;68121;52.404;5.318;2023-06-14T12:15:08;2.00;;;1.25;;
78778;SDS011;68121;52.404;5.318;2023-06-14T12:17:37;5.32;;;1.23;;
78778;SDS011;68121;52.404;5.318;2023-06-14T12:20:10;1.38;;;0.93;;
78778;SDS011;68121;52.404;5.318;2023-06-14T12:22:51;2.28;;;0.98;;
78778;SDS011;68121;52.404;5.318;2023-06-14T12:25:28;4.97;;;1.42;;
78778;SDS011;68121;52.404;5.318;2023-06-14T12:28:03;1.45;;;1.02;;
78778;SDS011;68121;52.404;5.318;2023-06-14T12:30:31;3.03;;;1.10;;
78778;SDS011;68121;52.404;5.318;2023-06-14T12:32:58;2.17;;;1.30;;
78778;SDS011;68121;52.404;5.318;2023-06-14T12:35:24;3.60;;;1.10;;
78778;SDS011;68121;52.404;5.318;2023-06-14T12:37:50;1.40;;;1.20;;
78778;SDS011;68121;52.404;5.318;2023-06-14T12:40:16;1.95;;;1.20;;
78778;SDS011;68121;52.404;5.318;2023-06-14T12:42:44;1.40;;;1.13;;
78778;SDS011;68121;52.404;5.318;2023-06-14T12:45:12;3.13;;;1.00;;
78778;SDS011;68121;52.404;5.318;2023-06-14T12:47:39;2.65;;;1.20;;
78778;SDS011;68121;52.404;5.318;2023-06-14T12:50:05;1.60;;;1.05;;
78778;SDS011;68121;52.404;5.318;2023-06-14T12:52:32;2.97;;;1.30;;
78778;SDS011;68121;52.404;5.318;2023-06-14T12:55:02;3.35;;;1.23;;
78778;SDS011;68121;52.404;5.318;2023-06-14T12:57:32;1.77;;;1.15;;
78778;SDS011;68121;52.404;5.318;2023-06-14T12:59:59;2.05;;;1.30;;
78778;SDS011;68121;52.404;5.318;2023-06-14T13:02:26;1.98;;;1.10;;
78778;SDS011;68121;52.404;5.318;2023-06-14T13:04:52;2.20;;;1.35;;
78778;SDS011;68121;52.404;5.318;2023-06-14T13:07:18;2.20;;;0.90;;
78778;SDS011;68121;52.404;5.318;2023-06-14T13:09:44;4.20;;;1.05;;
78778;SDS011;68121;52.404;5.318;2023-06-14T13:12:10;5.07;;;1.10;;
78778;SDS011;68121;52.404;5.318;2023-06-14T13:14:38;1.67;;;1.20;;
78778;SDS011;68121;52.404;5.318;2023-06-14T13:17:10;2.17;;;1.00;;
78778;SDS011;68121;52.404;5.318;2023-06-14T13:19:36;1.80;;;1.17;;
78778;SDS011;68121;52.404;5.318;2023-06-14T13:22:03;2.30;;;0.90;;
78778;SDS011;68121;52.404;5.318;2023-06-14T13:24:29;2.53;;;1.10;;
78778;SDS011;68121;52.404;5.318;2023-06-14T13:26:56;2.97;;;1.40;;
78778;SDS011;68121;52.404;5.318;2023-06-14T13:29:25;2.78;;;1.20;;
78778;SDS011;68121;52.404;5.318;2023-06-14T13:31:52;2.22;;;1.08;;
78778;SDS011;68121;52.404;5.318;2023-06-14T13:34:18;3.47;;;1.15;;
78778;SDS011;68121;52.404;5.318;2023-06-14T13:36:44;7.53;;;1.48;;
78778;SDS011;68121;52.404;5.318;2023-06-14T13:39:10;4.32;;;1.10;;
78778;SDS011;68121;52.404;5.318;2023-06-14T13:41:37;3.30;;;1.27;;
78778;SDS011;68121;52.404;5.318;2023-06-14T13:44:03;1.40;;;1.00;;
78778;SDS011;68121;52.404;5.318;2023-06-14T13:46:30;3.65;;;1.00;;
78778;SDS011;68121;52.404;5.318;2023-06-14T13:48:56;1.88;;;1.17;;
78778;SDS011;68121;52.404;5.318;2023-06-14T13:51:23;4.53;;;1.23;;
78778;SDS011;68121;52.404;5.318;2023-06-14T13:53:52;3.70;;;1.27;;
78778;SDS011;68121;52.404;5.318;2023-06-14T13:56:19;1.67;;;0.93;;
78778;SDS011;68121;52.404;5.318;2023-06-14T13:58:46;2.53;;;1.23;;
78778;SDS011;68121;52.404;5.318;2023-06-14T14:01:12;3.13;;;1.30;;
78778;SDS011;68121;52.404;5.318;2023-06-14T14:03:38;1.67;;;1.23;;
78778;SDS011;68121;52.404;5.318;2023-06-14T14:06:04;1.65;;;1.05;;
78778;SDS011;68121;52.404;5.318;2023-06-14T14:08:32;5.05;;;1.25;;
78778;SDS011;68121;52.404;5.318;2023-06-14T14:10:58;3.33;;;0.95;;
78778;SDS011;68121;52.404;5.318;2023-06-14T14:13:24;3.67;;;1.40;;
78778;SDS011;68121;52.404;5.318;2023-06-14T14:15:51;1.58;;;0.98;;
78778;SDS011;68121;52.404;5.318;2023-06-14T14:18:17;2.58;;;1.10;;
78778;SDS011;68121;52.404;5.318;2023-06-14T14:20:44;2.38;;;1.13;;
78778;SDS011;68121;52.404;5.318;2023-06-14T14:23:10;3.10;;;1.20;;
78778;SDS011;68121;52.404;5.318;2023-06-14T14:25:36;2.05;;;1.30;;
78778;SDS011;68121;52.404;5.318;2023-06-14T14:28:02;1.83;;;1.20;;
78778;SDS011;68121;52.404;5.318;2023-06-14T14:30:28;2.20;;;1.05;;
78778;SDS011;68121;52.404;5.318;2023-06-14T14:32:54;10.23;;;1.20;;
78778;SDS011;68121;52.404;5.318;2023-06-14T14:35:21;2.45;;;1.40;;
78778;SDS011;68121;52.404;5.318;2023-06-14T14:37:48;2.65;;;1.00;;
78778;SDS011;68121;52.404;5.318;2023-06-14T14:40:15;4.57;;;1.30;;
78778;SDS011;68121;52.404;5.318;2023-06-14T14:42:41;2.08;;;1.00;;
78778;SDS011;68121;52.404;5.318;2023-06-14T14:45:07;1.55;;;0.82;;
78778;SDS011;68121;52.404;5.318;2023-06-14T14:47:33;2.70;;;1.23;;
78778;SDS011;68121;52.404;5.318;2023-06-14T14:50:00;5.78;;;1.40;;
78778;SDS011;68121;52.404;5.318;2023-06-14T14:52:26;2.78;;;1.10;;
78778;SDS011;68121;52.404;5.318;2023-06-14T14:54:52;3.38;;;1.23;;
78778;SDS011;68121;52.404;5.318;2023-06-14T14:57:19;1.92;;;1.30;;
78778;SDS011;68121;52.404;5.318;2023-06-14T14:59:46;2.28;;;0.98;;
78778;SDS011;68121;52.404;5.318;2023-06-14T15:02:12;1.58;;;0.82;;
78778;SDS011;68121;52.404;5.318;2023-06-14T15:04:38;2.40;;;1.10;;
78778;SDS011;68121;52.404;5.318;2023-06-14T15:07:04;2.50;;;1.13;;
78778;SDS011;68121;52.404;5.318;2023-06-14T15:09:31;2.70;;;1.05;;
78778;SDS011;68121;52.404;5.318;2023-06-14T15:11:57;2.38;;;1.08;;